Terminal Aerodrome Forecast
Issued by NWS

Current Version | Previous Version | Graphics & Text | Print | Product List | Glossary On
Versions: 1 2 3 4 5 6 7 8 9 10 11 12 13 14 15 16
000
FTUS41 KPBZ 250100 AAA
TAFMGW
TAF AMD
KMGW 250159Z 2502/2524 25015G30KT P6SM -SHRA BKN035
     FM250400 25015G30KT P6SM OVC012
     FM251200 24014G24KT P6SM OVC022
     FM251800 25012G22KT P6SM BKN035=

USA.gov is the U.S. government's official web portal to all federal, state and local government web resources and services.